Terminal Aerodrome Forecast
Issued by NWS Sterling, VA

Current Version | Previous Version | Graphics & Text | Print | Product List | Glossary On
Versions: 1 2 3 4 5 6 7 8 9 10 11 12 13 14 15 16 17 18
000
FTUS41 KLWX 061735
TAFMRB
TAF
KMRB 061735Z 0618/0718 11006KT 2SM RA OVC050
     FM062000 10006KT 2SM RA OVC008
     FM062200 08005KT 2SM -RA OVC003
     FM070600 00000KT 3SM BR OVC008
     FM071200 30006KT P6SM BKN050
     FM071600 31008KT P6SM SCT050=

USA.gov is the U.S. government's official web portal to all federal, state and local government web resources and services.